sensor_id;sensor_type;location;lat;lon;timestamp;pressure;altitude;pressure_sealevel;temperature;humidity
35878;BME280;21982;49.804;24.072;2023-07-28T00:01:29;96836.69;;;14.20;71.40
35878;BME280;21982;49.804;24.072;2023-07-28T00:03:55;96834.03;;;14.20;71.04
35878;BME280;21982;49.804;24.072;2023-07-28T00:06:20;96794.97;;;13.95;71.24
35878;BME280;21982;49.804;24.072;2023-07-28T00:08:46;96787.03;;;13.89;70.90
35878;BME280;21982;49.804;24.072;2023-07-28T00:11:12;96781.44;;;13.79;70.72
35878;BME280;21982;49.804;24.072;2023-07-28T00:13:38;96760.78;;;13.56;70.78
35878;BME280;21982;49.804;24.072;2023-07-28T00:16:04;96821.00;;;13.93;70.66
35878;BME280;21982;49.804;24.072;2023-07-28T00:18:30;96849.13;;;14.07;70.90
35878;BME280;21982;49.804;24.072;2023-07-28T00:20:55;96853.84;;;14.05;70.57
35878;BME280;21982;49.804;24.072;2023-07-28T00:23:20;96850.59;;;14.03;70.85
35878;BME280;21982;49.804;24.072;2023-07-28T00:25:46;96767.81;;;13.50;70.58
35878;BME280;21982;49.804;24.072;2023-07-28T00:28:11;96850.22;;;14.00;70.85
35878;BME280;21982;49.804;24.072;2023-07-28T00:30:39;96828.00;;;13.88;70.66
35878;BME280;21982;49.804;24.072;2023-07-28T00:33:05;96839.78;;;13.98;70.23
35878;BME280;21982;49.804;24.072;2023-07-28T00:35:30;96791.84;;;13.62;70.36
35878;BME280;21982;49.804;24.072;2023-07-28T00:37:56;96793.19;;;13.71;70.12
35878;BME280;21982;49.804;24.072;2023-07-28T00:40:22;96759.38;;;13.53;69.93
35878;BME280;21982;49.804;24.072;2023-07-28T00:42:48;96838.31;;;14.02;69.85
35878;BME280;21982;49.804;24.072;2023-07-28T00:45:13;96703.19;;;13.00;69.59
35878;BME280;21982;49.804;24.072;2023-07-28T00:47:39;96818.34;;;13.93;69.69
35878;BME280;21982;49.804;24.072;2023-07-28T00:50:05;96825.59;;;14.04;69.47
35878;BME280;21982;49.804;24.072;2023-07-28T00:52:31;96834.38;;;14.05;69.28
35878;BME280;21982;49.804;24.072;2023-07-28T00:54:57;96834.38;;;14.05;69.43
35878;BME280;21982;49.804;24.072;2023-07-28T00:57:23;96837.44;;;14.08;69.38
35878;BME280;21982;49.804;24.072;2023-07-28T00:59:48;96804.44;;;13.91;68.75
35878;BME280;21982;49.804;24.072;2023-07-28T01:02:14;96814.78;;;13.99;68.54
35878;BME280;21982;49.804;24.072;2023-07-28T01:04:39;96763.91;;;13.71;68.47
35878;BME280;21982;49.804;24.072;2023-07-28T01:07:27;96826.06;;;14.20;68.04
35878;BME280;21982;49.804;24.072;2023-07-28T01:10:08;96756.16;;;13.69;68.36
35878;BME280;21982;49.804;24.072;2023-07-28T01:12:35;96823.25;;;14.15;68.45
35878;BME280;21982;49.804;24.072;2023-07-28T01:15:01;96818.50;;;14.17;68.09
35878;BME280;21982;49.804;24.072;2023-07-28T01:17:26;96795.06;;;14.07;68.34
35878;BME280;21982;49.804;24.072;2023-07-28T01:19:53;96772.50;;;13.91;68.07
35878;BME280;21982;49.804;24.072;2023-07-28T01:25:28;96820.25;;;14.23;67.57
35878;BME280;21982;49.804;24.072;2023-07-28T01:27:58;96811.66;;;14.21;67.58
35878;BME280;21982;49.804;24.072;2023-07-28T01:30:26;96724.56;;;13.55;67.44
35878;BME280;21982;49.804;24.072;2023-07-28T01:32:56;96763.19;;;14.00;67.52
35878;BME280;21982;49.804;24.072;2023-07-28T01:35:22;96810.63;;;14.22;67.11
35878;BME280;21982;49.804;24.072;2023-07-28T01:37:47;96811.22;;;14.24;67.20
35878;BME280;21982;49.804;24.072;2023-07-28T01:40:17;96814.94;;;14.23;67.44
35878;BME280;21982;49.804;24.072;2023-07-28T01:42:44;96811.22;;;14.24;67.09
35878;BME280;21982;49.804;24.072;2023-07-28T01:45:09;96778.19;;;13.95;67.21
35878;BME280;21982;49.804;24.072;2023-07-28T01:47:35;96788.91;;;14.06;67.05
35878;BME280;21982;49.804;24.072;2023-07-28T01:50:00;96812.16;;;14.18;67.16
35878;BME280;21982;49.804;24.072;2023-07-28T01:52:26;96807.63;;;14.18;66.81
35878;BME280;21982;49.804;24.072;2023-07-28T01:54:51;96805.19;;;14.17;66.77
35878;BME280;21982;49.804;24.072;2023-07-28T01:57:17;96806.81;;;14.18;66.91
35878;BME280;21982;49.804;24.072;2023-07-28T01:59:42;96800.47;;;14.19;66.70
35878;BME280;21982;49.804;24.072;2023-07-28T02:02:09;96793.50;;;14.18;66.29
35878;BME280;21982;49.804;24.072;2023-07-28T02:04:34;96735.63;;;13.77;66.48
35878;BME280;21982;49.804;24.072;2023-07-28T02:07:00;96798.25;;;14.16;66.60
35878;BME280;21982;49.804;24.072;2023-07-28T02:09:25;96795.34;;;14.17;66.65
35878;BME280;21982;49.804;24.072;2023-07-28T02:11:51;96795.34;;;14.17;66.05
35878;BME280;21982;49.804;24.072;2023-07-28T02:14:17;96796.97;;;14.18;66.40
35878;BME280;21982;49.804;24.072;2023-07-28T02:16:42;96759.41;;;13.90;66.09
35878;BME280;21982;49.804;24.072;2023-07-28T02:19:08;96792.75;;;14.11;66.08
35878;BME280;21982;49.804;24.072;2023-07-28T02:21:33;96775.31;;;13.96;65.77
35878;BME280;21982;49.804;24.072;2023-07-28T02:23:58;96784.19;;;14.08;66.19
35878;BME280;21982;49.804;24.072;2023-07-28T02:26:24;96725.63;;;13.72;65.95
35878;BME280;21982;49.804;24.072;2023-07-28T02:28:49;96806.34;;;14.21;66.06
35878;BME280;21982;49.804;24.072;2023-07-28T02:31:15;96818.63;;;14.22;66.00
35878;BME280;21982;49.804;24.072;2023-07-28T02:33:40;96770.94;;;14.02;65.68
35878;BME280;21982;49.804;24.072;2023-07-28T02:36:05;96771.47;;;14.11;65.33
35878;BME280;21982;49.804;24.072;2023-07-28T02:38:33;96716.91;;;13.83;65.09
35878;BME280;21982;49.804;24.072;2023-07-28T02:40:59;96779.28;;;14.24;65.37
35878;BME280;21982;49.804;24.072;2023-07-28T02:43:24;96802.66;;;14.40;65.43
35878;BME280;21982;49.804;24.072;2023-07-28T02:45:57;96809.56;;;14.48;64.92
35878;BME280;21982;49.804;24.072;2023-07-28T02:48:23;96680.03;;;13.68;64.98
35878;BME280;21982;49.804;24.072;2023-07-28T02:50:52;96770.91;;;14.38;64.48
35878;BME280;21982;49.804;24.072;2023-07-28T02:53:17;96789.19;;;14.53;64.34
35878;BME280;21982;49.804;24.072;2023-07-28T02:55:43;96759.44;;;14.38;64.46
35878;BME280;21982;49.804;24.072;2023-07-28T02:58:09;96789.31;;;14.58;64.20
35878;BME280;21982;49.804;24.072;2023-07-28T03:00:39;96734.16;;;14.29;63.92
35878;BME280;21982;49.804;24.072;2023-07-28T03:03:05;96792.56;;;14.60;64.36
35878;BME280;21982;49.804;24.072;2023-07-28T03:05:31;96758.19;;;14.40;64.11
35878;BME280;21982;49.804;24.072;2023-07-28T03:07:57;96797.22;;;14.65;64.08
35878;BME280;21982;49.804;24.072;2023-07-28T03:10:23;96791.06;;;14.64;63.87
35878;BME280;21982;49.804;24.072;2023-07-28T03:12:49;96745.31;;;14.37;63.94
35878;BME280;21982;49.804;24.072;2023-07-28T03:15:15;96704.47;;;14.14;63.74
35878;BME280;21982;49.804;24.072;2023-07-28T03:17:40;96778.34;;;14.66;63.84
35878;BME280;21982;49.804;24.072;2023-07-28T03:20:06;96773.00;;;14.66;63.68
35878;BME280;21982;49.804;24.072;2023-07-28T03:22:32;96738.88;;;14.45;63.73
35878;BME280;21982;49.804;24.072;2023-07-28T03:24:57;96782.03;;;14.65;64.00
35878;BME280;21982;49.804;24.072;2023-07-28T03:27:23;96754.25;;;14.25;63.92
35878;BME280;21982;49.804;24.072;2023-07-28T03:29:48;96738.34;;;14.36;63.92
35878;BME280;21982;49.804;24.072;2023-07-28T03:32:14;96707.47;;;14.17;64.23
35878;BME280;21982;49.804;24.072;2023-07-28T03:34:39;96768.56;;;14.60;63.89
35878;BME280;21982;49.804;24.072;2023-07-28T03:37:05;96628.22;;;13.71;64.07
35878;BME280;21982;49.804;24.072;2023-07-28T03:39:30;96753.84;;;14.46;64.18
35878;BME280;21982;49.804;24.072;2023-07-28T03:41:56;96771.13;;;14.55;64.25
35878;BME280;21982;49.804;24.072;2023-07-28T03:44:22;96743.31;;;14.33;64.15
35878;BME280;21982;49.804;24.072;2023-07-28T03:46:48;96741.91;;;14.30;64.52
35878;BME280;21982;49.804;24.072;2023-07-28T03:49:13;96755.59;;;14.34;64.74
35878;BME280;21982;49.804;24.072;2023-07-28T03:51:39;96770.91;;;14.38;64.88
35878;BME280;21982;49.804;24.072;2023-07-28T03:54:04;96751.13;;;14.16;65.10
35878;BME280;21982;49.804;24.072;2023-07-28T03:56:29;96717.19;;;13.93;65.06
35878;BME280;21982;49.804;24.072;2023-07-28T03:58:55;96722.22;;;14.01;64.96
35878;BME280;21982;49.804;24.072;2023-07-28T04:01:20;96746.59;;;14.17;65.13
35878;BME280;21982;49.804;24.072;2023-07-28T04:03:47;96717.84;;;14.07;65.47
35878;BME280;21982;49.804;24.072;2023-07-28T04:06:13;96763.09;;;14.44;65.33
35878;BME280;21982;49.804;24.072;2023-07-28T04:08:41;96692.63;;;14.09;65.35
35878;BME280;21982;49.804;24.072;2023-07-28T04:11:07;96746.19;;;14.50;64.90
35878;BME280;21982;49.804;24.072;2023-07-28T04:13:35;96739.28;;;14.60;64.76
35878;BME280;21982;49.804;24.072;2023-07-28T04:16:01;96761.00;;;14.75;64.77
35878;BME280;21982;49.804;24.072;2023-07-28T04:18:27;96709.72;;;14.50;64.89
35878;BME280;21982;49.804;24.072;2023-07-28T04:20:53;96745.84;;;14.88;64.39
35878;BME280;21982;49.804;24.072;2023-07-28T04:23:18;96760.72;;;15.07;64.24
35878;BME280;21982;49.804;24.072;2023-07-28T04:25:44;96665.69;;;14.59;64.62
35878;BME280;21982;49.804;24.072;2023-07-28T04:28:09;96707.00;;;14.92;64.26
35878;BME280;21982;49.804;24.072;2023-07-28T04:30:35;96758.78;;;15.37;64.27
35878;BME280;21982;49.804;24.072;2023-07-28T04:33:00;96717.63;;;15.22;63.85
35878;BME280;21982;49.804;24.072;2023-07-28T04:35:26;96753.47;;;15.61;63.74
35878;BME280;21982;49.804;24.072;2023-07-28T04:37:52;96756.81;;;15.68;63.39
35878;BME280;21982;49.804;24.072;2023-07-28T04:40:17;96680.13;;;15.28;63.46
35878;BME280;21982;49.804;24.072;2023-07-28T04:42:42;96687.91;;;15.53;63.07
35878;BME280;21982;49.804;24.072;2023-07-28T04:45:08;96695.09;;;15.64;62.66
35878;BME280;21982;49.804;24.072;2023-07-28T04:47:34;96751.69;;;16.30;62.56
35878;BME280;21982;49.804;24.072;2023-07-28T04:49:59;96756.41;;;16.51;62.43
35878;BME280;21982;49.804;24.072;2023-07-28T04:52:25;96755.44;;;16.57;62.07
35878;BME280;21982;49.804;24.072;2023-07-28T04:54:50;96752.69;;;16.81;61.53
35878;BME280;21982;49.804;24.072;2023-07-28T04:57:15;96445.41;;;15.00;61.25
35878;BME280;21982;49.804;24.072;2023-07-28T04:59:43;96663.03;;;16.61;61.21
35878;BME280;21982;49.804;24.072;2023-07-28T05:02:08;96724.34;;;17.13;61.02
35878;BME280;21982;49.804;24.072;2023-07-28T05:04:34;96702.47;;;17.16;60.96
35878;BME280;21982;49.804;24.072;2023-07-28T05:07:00;96734.03;;;17.53;60.72
35878;BME280;21982;49.804;24.072;2023-07-28T05:09:26;96684.59;;;17.38;60.61
35878;BME280;21982;49.804;24.072;2023-07-28T05:11:53;96731.53;;;18.01;59.90
35878;BME280;21982;49.804;24.072;2023-07-28T05:14:18;96709.47;;;18.16;59.29
35878;BME280;21982;49.804;24.072;2023-07-28T05:16:44;96703.94;;;18.50;58.60
35878;BME280;21982;49.804;24.072;2023-07-28T05:19:09;96666.88;;;18.68;57.74
35878;BME280;21982;49.804;24.072;2023-07-28T05:21:34;96740.16;;;19.75;56.84
35878;BME280;21982;49.804;24.072;2023-07-28T05:24:00;96715.91;;;20.22;55.12
35878;BME280;21982;49.804;24.072;2023-07-28T05:26:25;96703.97;;;20.60;54.11
35878;BME280;21982;49.804;24.072;2023-07-28T05:28:50;96723.69;;;21.22;53.35
35878;BME280;21982;49.804;24.072;2023-07-28T05:31:16;96665.50;;;21.41;51.96
35878;BME280;21982;49.804;24.072;2023-07-28T05:33:41;96698.22;;;21.99;50.97
35878;BME280;21982;49.804;24.072;2023-07-28T05:36:07;96722.44;;;22.68;49.85
35878;BME280;21982;49.804;24.072;2023-07-28T06:29:31;96631.41;;;26.58;39.75
35878;BME280;21982;49.804;24.072;2023-07-28T06:31:56;96679.66;;;26.61;40.00
35878;BME280;21982;49.804;24.072;2023-07-28T06:34:22;96739.88;;;27.58;39.41
35878;BME280;21982;49.804;24.072;2023-07-28T06:36:47;96737.41;;;28.32;38.16
35878;BME280;21982;49.804;24.072;2023-07-28T06:39:13;96640.75;;;28.12;37.28
35878;BME280;21982;49.804;24.072;2023-07-28T06:41:38;96630.50;;;28.18;36.74
35878;BME280;21982;49.804;24.072;2023-07-28T06:44:07;96645.47;;;28.46;36.59
35878;BME280;21982;49.804;24.072;2023-07-28T06:46:33;96722.31;;;29.34;36.54
35878;BME280;21982;49.804;24.072;2023-07-28T06:48:59;96725.06;;;29.00;35.96
35878;BME280;21982;49.804;24.072;2023-07-28T06:51:24;96725.63;;;28.14;36.90
35878;BME280;21982;49.804;24.072;2023-07-28T06:53:50;96698.72;;;26.84;38.11
35878;BME280;21982;49.804;24.072;2023-07-28T06:56:16;96694.97;;;26.02;39.09
35878;BME280;21982;49.804;24.072;2023-07-28T06:58:42;96623.84;;;26.05;38.79
35878;BME280;21982;49.804;24.072;2023-07-28T07:01:08;96549.25;;;26.75;37.51
35878;BME280;21982;49.804;24.072;2023-07-28T07:03:37;96708.28;;;28.41;36.63
35878;BME280;21982;49.804;24.072;2023-07-28T07:06:02;96620.00;;;28.25;35.87
35878;BME280;21982;49.804;24.072;2023-07-28T07:08:28;96713.00;;;28.84;35.36
35878;BME280;21982;49.804;24.072;2023-07-28T07:10:53;96697.44;;;28.19;35.28
35878;BME280;21982;49.804;24.072;2023-07-28T07:13:19;96721.78;;;28.07;35.18
35878;BME280;21982;49.804;24.072;2023-07-28T07:15:45;96711.03;;;28.01;35.76
35878;BME280;21982;49.804;24.072;2023-07-28T07:18:14;96688.94;;;28.12;35.69
35878;BME280;21982;49.804;24.072;2023-07-28T07:23:22;96725.84;;;29.18;34.62
35878;BME280;21982;49.804;24.072;2023-07-28T07:25:49;96685.41;;;29.37;33.98
35878;BME280;21982;49.804;24.072;2023-07-28T07:28:15;96704.38;;;29.80;33.57
35878;BME280;21982;49.804;24.072;2023-07-28T07:30:42;96650.75;;;29.84;33.21
35878;BME280;21982;49.804;24.072;2023-07-28T07:33:07;96564.19;;;29.64;32.89
35878;BME280;21982;49.804;24.072;2023-07-28T07:35:37;96660.66;;;30.36;33.06
35878;BME280;21982;49.804;24.072;2023-07-28T07:38:04;96726.31;;;30.77;33.00
35878;BME280;21982;49.804;24.072;2023-07-28T07:40:34;96672.31;;;30.15;32.77
35878;BME280;21982;49.804;24.072;2023-07-28T07:43:00;96729.16;;;29.75;33.29
35878;BME280;21982;49.804;24.072;2023-07-28T07:45:27;96720.69;;;29.33;33.54
35878;BME280;21982;49.804;24.072;2023-07-28T07:47:53;96703.06;;;28.88;34.22
35878;BME280;21982;49.804;24.072;2023-07-28T07:50:21;96695.88;;;29.09;34.43
35878;BME280;21982;49.804;24.072;2023-07-28T07:52:47;96549.66;;;28.44;33.79
35878;BME280;21982;49.804;24.072;2023-07-28T07:55:14;96716.69;;;30.42;33.20
35878;BME280;21982;49.804;24.072;2023-07-28T07:57:40;96721.16;;;30.76;32.23
35878;BME280;21982;49.804;24.072;2023-07-28T08:00:08;96641.19;;;30.37;32.50
35878;BME280;21982;49.804;24.072;2023-07-28T08:02:34;96651.84;;;30.30;31.81
35878;BME280;21982;49.804;24.072;2023-07-28T08:05:01;96681.34;;;30.87;31.80
35878;BME280;21982;49.804;24.072;2023-07-28T08:07:27;96659.31;;;31.25;31.78
35878;BME280;21982;49.804;24.072;2023-07-28T08:09:53;96670.31;;;31.70;31.42
35878;BME280;21982;49.804;24.072;2023-07-28T08:12:19;96713.03;;;32.32;31.25
35878;BME280;21982;49.804;24.072;2023-07-28T08:14:44;96708.25;;;32.29;30.85
35878;BME280;21982;49.804;24.072;2023-07-28T08:17:11;96722.41;;;32.55;30.29
35878;BME280;21982;49.804;24.072;2023-07-28T08:19:36;96717.31;;;31.72;31.00
35878;BME280;21982;49.804;24.072;2023-07-28T08:22:02;96708.09;;;30.52;32.21
35878;BME280;21982;49.804;24.072;2023-07-28T08:24:31;96712.34;;;29.21;32.79
35878;BME280;21982;49.804;24.072;2023-07-28T08:26:56;96713.59;;;28.55;33.49
35878;BME280;21982;49.804;24.072;2023-07-28T08:29:22;96636.19;;;27.51;34.50
35878;BME280;21982;49.804;24.072;2023-07-28T08:31:47;96723.81;;;27.48;34.96
35878;BME280;21982;49.804;24.072;2023-07-28T08:34:13;96603.47;;;25.94;35.65
35878;BME280;21982;49.804;24.072;2023-07-28T08:36:38;96711.28;;;26.16;36.51
35878;BME280;21982;49.804;24.072;2023-07-28T08:39:05;96677.47;;;25.54;37.16
35878;BME280;21982;49.804;24.072;2023-07-28T08:41:30;96708.53;;;25.43;36.91
35878;BME280;21982;49.804;24.072;2023-07-28T08:43:55;96699.16;;;25.21;37.21
35878;BME280;21982;49.804;24.072;2023-07-28T08:49:37;96688.06;;;24.48;38.27
35878;BME280;21982;49.804;24.072;2023-07-28T08:52:03;96730.84;;;24.46;38.77
35878;BME280;21982;49.804;24.072;2023-07-28T08:54:29;96631.44;;;23.66;39.19
35878;BME280;21982;49.804;24.072;2023-07-28T08:56:55;96660.31;;;23.70;39.88
35878;BME280;21982;49.804;24.072;2023-07-28T08:59:28;96683.22;;;23.78;39.76
35878;BME280;21982;49.804;24.072;2023-07-28T09:01:55;96690.03;;;23.70;40.42
35878;BME280;21982;49.804;24.072;2023-07-28T09:04:21;96715.47;;;23.93;40.35
35878;BME280;21982;49.804;24.072;2023-07-28T09:06:48;96576.41;;;23.04;41.03
35878;BME280;21982;49.804;24.072;2023-07-28T09:09:18;96647.06;;;23.45;40.98
35878;BME280;21982;49.804;24.072;2023-07-28T09:11:53;96721.97;;;23.92;40.95
35878;BME280;21982;49.804;24.072;2023-07-28T09:14:22;96721.31;;;23.82;40.48
35878;BME280;21982;49.804;24.072;2023-07-28T09:16:50;96662.31;;;23.31;40.88
35878;BME280;21982;49.804;24.072;2023-07-28T09:19:16;96616.03;;;23.14;40.67
35878;BME280;21982;49.804;24.072;2023-07-28T09:21:43;96710.81;;;23.75;41.16
35878;BME280;21982;49.804;24.072;2023-07-28T09:24:12;96702.72;;;23.99;41.19
35878;BME280;21982;49.804;24.072;2023-07-28T09:26:44;96702.47;;;24.43;40.71
35878;BME280;21982;49.804;24.072;2023-07-28T09:29:22;96697.19;;;24.70;40.31
35878;BME280;21982;49.804;24.072;2023-07-28T09:31:49;96555.78;;;23.85;40.34
35878;BME280;21982;49.804;24.072;2023-07-28T09:34:27;96691.06;;;25.35;39.87
35878;BME280;21982;49.804;24.072;2023-07-28T09:36:57;96627.63;;;25.22;39.25
35878;BME280;21982;49.804;24.072;2023-07-28T09:39:23;96633.63;;;25.19;39.15
35878;BME280;21982;49.804;24.072;2023-07-28T09:41:49;96641.84;;;25.14;39.73
35878;BME280;21982;49.804;24.072;2023-07-28T09:44:15;96640.84;;;24.72;38.74
35878;BME280;21982;49.804;24.072;2023-07-28T09:47:00;96671.47;;;24.54;39.49
35878;BME280;21982;49.804;24.072;2023-07-28T09:49:36;96695.56;;;24.32;39.26
35878;BME280;21982;49.804;24.072;2023-07-28T09:52:09;96700.63;;;24.15;39.19
35878;BME280;21982;49.804;24.072;2023-07-28T09:54:39;96585.09;;;23.25;39.42
35878;BME280;21982;49.804;24.072;2023-07-28T09:57:08;96676.25;;;23.72;39.67
35878;BME280;21982;49.804;24.072;2023-07-28T09:59:41;96613.91;;;23.34;39.95
35878;BME280;21982;49.804;24.072;2023-07-28T10:02:07;96691.94;;;23.70;40.27
35878;BME280;21982;49.804;24.072;2023-07-28T10:04:34;96705.38;;;23.80;40.15
35878;BME280;21982;49.804;24.072;2023-07-28T10:07:02;96636.84;;;23.66;40.17
35878;BME280;21982;49.804;24.072;2023-07-28T10:09:31;96694.31;;;24.24;39.80
35878;BME280;21982;49.804;24.072;2023-07-28T10:11:59;96601.28;;;24.20;39.16
35878;BME280;21982;49.804;24.072;2023-07-28T10:14:34;96606.91;;;24.61;38.89
35878;BME280;21982;49.804;24.072;2023-07-28T10:17:06;96617.66;;;24.85;38.21
35878;BME280;21982;49.804;24.072;2023-07-28T10:19:35;96691.19;;;25.44;37.98
35878;BME280;21982;49.804;24.072;2023-07-28T10:22:01;96683.13;;;25.71;37.74
35878;BME280;21982;49.804;24.072;2023-07-28T10:24:51;96670.47;;;26.08;37.18
35878;BME280;21982;49.804;24.072;2023-07-28T10:27:37;96665.41;;;25.60;37.21
35878;BME280;21982;49.804;24.072;2023-07-28T10:30:10;96681.06;;;25.49;37.23
35878;BME280;21982;49.804;24.072;2023-07-28T10:32:45;96673.47;;;25.00;37.68
35878;BME280;21982;49.804;24.072;2023-07-28T10:37:46;96708.91;;;24.47;38.10
35878;BME280;21982;49.804;24.072;2023-07-28T10:40:31;96687.47;;;24.08;38.88
35878;BME280;21982;49.804;24.072;2023-07-28T10:42:57;96688.31;;;24.27;39.24
35878;BME280;21982;49.804;24.072;2023-07-28T10:45:25;96684.84;;;24.46;38.60
35878;BME280;21982;49.804;24.072;2023-07-28T10:47:53;96675.63;;;24.84;38.29
35878;BME280;21982;49.804;24.072;2023-07-28T10:50:23;96693.66;;;25.26;37.55
35878;BME280;21982;49.804;24.072;2023-07-28T10:52:51;96690.44;;;25.24;37.53
35878;BME280;21982;49.804;24.072;2023-07-28T10:55:17;96668.34;;;25.17;37.60
35878;BME280;21982;49.804;24.072;2023-07-28T10:57:44;96669.63;;;24.87;38.08
35878;BME280;21982;49.804;24.072;2023-07-28T11:00:12;96619.66;;;24.42;38.38
35878;BME280;21982;49.804;24.072;2023-07-28T11:02:49;96647.44;;;24.66;38.35
35878;BME280;21982;49.804;24.072;2023-07-28T11:05:28;96647.66;;;24.70;39.11
35878;BME280;21982;49.804;24.072;2023-07-28T11:07:56;96537.63;;;23.66;39.08
35878;BME280;21982;49.804;24.072;2023-07-28T11:10:22;96674.81;;;24.46;39.32
35878;BME280;21982;49.804;24.072;2023-07-28T11:12:49;96567.25;;;23.95;39.29
35878;BME280;21982;49.804;24.072;2023-07-28T11:15:16;96693.41;;;24.71;39.10
35878;BME280;21982;49.804;24.072;2023-07-28T11:17:47;96657.53;;;24.80;39.10
35878;BME280;21982;49.804;24.072;2023-07-28T11:20:21;96654.03;;;24.60;39.14
35878;BME280;21982;49.804;24.072;2023-07-28T11:22:52;96576.75;;;23.50;39.65
35878;BME280;21982;49.804;24.072;2023-07-28T11:25:18;96646.41;;;23.82;40.34
35878;BME280;21982;49.804;24.072;2023-07-28T11:27:45;96608.81;;;23.57;40.44
35878;BME280;21982;49.804;24.072;2023-07-28T11:30:17;96621.41;;;23.43;40.67
35878;BME280;21982;49.804;24.072;2023-07-28T11:32:49;96694.66;;;23.70;41.06
35878;BME280;21982;49.804;24.072;2023-07-28T11:35:17;96655.97;;;23.46;41.14
35878;BME280;21982;49.804;24.072;2023-07-28T11:37:46;96675.78;;;23.65;41.77
35878;BME280;21982;49.804;24.072;2023-07-28T11:40:17;96683.59;;;23.66;41.40
35878;BME280;21982;49.804;24.072;2023-07-28T11:42:53;96685.97;;;23.44;42.00
35878;BME280;21982;49.804;24.072;2023-07-28T11:45:22;96636.03;;;22.79;42.30
35878;BME280;21982;49.804;24.072;2023-07-28T11:50:29;96662.41;;;22.48;43.34
35878;BME280;21982;49.804;24.072;2023-07-28T11:52:57;96575.03;;;21.89;43.50
35878;BME280;21982;49.804;24.072;2023-07-28T11:55:22;96641.31;;;22.00;43.71
35878;BME280;21982;49.804;24.072;2023-07-28T11:57:48;96614.50;;;21.70;44.34
35878;BME280;21982;49.804;24.072;2023-07-28T12:00:14;96591.16;;;21.40;44.61
35878;BME280;21982;49.804;24.072;2023-07-28T12:02:43;96583.91;;;21.15;44.51
35878;BME280;21982;49.804;24.072;2023-07-28T12:05:13;96729.28;;;21.81;44.53
35878;BME280;21982;49.804;24.072;2023-07-28T12:07:39;96729.84;;;21.58;45.14
35878;BME280;21982;49.804;24.072;2023-07-28T12:10:08;96712.63;;;21.33;45.91
35878;BME280;21982;49.804;24.072;2023-07-28T12:12:44;96673.03;;;20.83;46.59
35878;BME280;21982;49.804;24.072;2023-07-28T12:15:27;96699.41;;;20.81;47.09
35878;BME280;21982;49.804;24.072;2023-07-28T12:18:13;96716.09;;;20.88;47.58
35878;BME280;21982;49.804;24.072;2023-07-28T12:20:43;96669.81;;;20.76;47.96
35878;BME280;21982;49.804;24.072;2023-07-28T12:23:14;96708.03;;;21.03;48.18
35878;BME280;21982;49.804;24.072;2023-07-28T12:25:42;96689.47;;;21.07;47.99
35878;BME280;21982;49.804;24.072;2023-07-28T12:28:07;96620.03;;;20.63;47.89
35878;BME280;21982;49.804;24.072;2023-07-28T12:30:34;96690.78;;;21.20;47.98
35878;BME280;21982;49.804;24.072;2023-07-28T12:32:59;96617.34;;;20.89;48.10
35878;BME280;21982;49.804;24.072;2023-07-28T12:35:26;96621.09;;;21.08;47.59
35878;BME280;21982;49.804;24.072;2023-07-28T12:37:58;96660.34;;;21.55;47.41
35878;BME280;21982;49.804;24.072;2023-07-28T12:40:27;96680.44;;;21.88;47.25
35878;BME280;21982;49.804;24.072;2023-07-28T12:42:54;96672.06;;;21.94;46.72
35878;BME280;21982;49.804;24.072;2023-07-28T12:45:20;96679.38;;;21.89;46.71
35878;BME280;21982;49.804;24.072;2023-07-28T12:47:46;96683.19;;;21.83;47.13
35878;BME280;21982;49.804;24.072;2023-07-28T12:50:11;96612.47;;;21.31;46.61
35878;BME280;21982;49.804;24.072;2023-07-28T12:52:37;96546.88;;;20.77;47.01
35878;BME280;21982;49.804;24.072;2023-07-28T12:55:05;96680.00;;;21.60;46.96
35878;BME280;21982;49.804;24.072;2023-07-28T12:57:32;96664.44;;;21.37;47.01
35878;BME280;21982;49.804;24.072;2023-07-28T12:59:58;96606.84;;;21.02;47.00
35878;BME280;21982;49.804;24.072;2023-07-28T13:02:23;96560.84;;;20.68;47.14
35878;BME280;21982;49.804;24.072;2023-07-28T13:04:51;96663.63;;;21.36;47.39
35878;BME280;21982;49.804;24.072;2023-07-28T13:07:16;96688.91;;;21.51;47.34
35878;BME280;21982;49.804;24.072;2023-07-28T13:09:43;96600.09;;;21.00;47.49
35878;BME280;21982;49.804;24.072;2023-07-28T13:12:08;96689.69;;;21.56;47.73
35878;BME280;21982;49.804;24.072;2023-07-28T13:14:34;96593.09;;;21.09;47.64
35878;BME280;21982;49.804;24.072;2023-07-28T13:17:00;96686.72;;;21.68;47.64
35878;BME280;21982;49.804;24.072;2023-07-28T13:19:25;96688.06;;;21.76;47.69
35878;BME280;21982;49.804;24.072;2023-07-28T13:21:51;96667.59;;;21.69;47.64
35878;BME280;21982;49.804;24.072;2023-07-28T13:24:16;96674.78;;;21.84;47.62
35878;BME280;21982;49.804;24.072;2023-07-28T13:26:42;96685.03;;;21.87;47.50
35878;BME280;21982;49.804;24.072;2023-07-28T13:29:07;96685.56;;;21.89;47.46
35878;BME280;21982;49.804;24.072;2023-07-28T13:31:33;96706.09;;;21.80;47.57
35878;BME280;21982;49.804;24.072;2023-07-28T13:33:59;96661.19;;;21.45;47.61
35878;BME280;21982;49.804;24.072;2023-07-28T13:36:24;96439.81;;;20.13;47.72
35878;BME280;21982;49.804;24.072;2023-07-28T13:38:51;96402.50;;;19.96;47.97
35878;BME280;21982;49.804;24.072;2023-07-28T13:41:17;96628.88;;;21.35;48.05
35878;BME280;21982;49.804;24.072;2023-07-28T13:43:42;96696.34;;;21.94;48.19
35878;BME280;21982;49.804;24.072;2023-07-28T13:46:28;96679.59;;;22.13;47.83
35878;BME280;21982;49.804;24.072;2023-07-28T13:48:53;96695.16;;;22.21;47.76
35878;BME280;21982;49.804;24.072;2023-07-28T13:51:19;96680.16;;;21.94;47.47
35878;BME280;21982;49.804;24.072;2023-07-28T13:53:46;96673.16;;;21.93;47.78
35878;BME280;21982;49.804;24.072;2023-07-28T13:56:11;96661.13;;;21.65;48.14